sensor_id;sensor_type;location;lat;lon;timestamp;pressure;altitude;pressure_sealevel;temperature
15607;BMP180;7865;50.918;4.510;2023-05-10T00:03:39;100369.00;;;12.30
15607;BMP180;7865;50.918;4.510;2023-05-10T00:08:41;100367.00;;;12.30
15607;BMP180;7865;50.918;4.510;2023-05-10T00:13:42;100372.00;;;12.30
15607;BMP180;7865;50.918;4.510;2023-05-10T00:18:44;100375.00;;;12.30
15607;BMP180;7865;50.918;4.510;2023-05-10T00:23:45;100366.00;;;12.30
15607;BMP180;7865;50.918;4.510;2023-05-10T00:28:46;100372.00;;;12.40
15607;BMP180;7865;50.918;4.510;2023-05-10T00:33:48;100372.00;;;12.30
15607;BMP180;7865;50.918;4.510;2023-05-10T00:38:49;100366.00;;;12.30
15607;BMP180;7865;50.918;4.510;2023-05-10T00:43:52;100364.00;;;12.30
15607;BMP180;7865;50.918;4.510;2023-05-10T00:48:53;100364.00;;;12.30
15607;BMP180;7865;50.918;4.510;2023-05-10T00:53:54;100358.00;;;12.30
15607;BMP180;7865;50.918;4.510;2023-05-10T00:58:57;100360.00;;;12.30
15607;BMP180;7865;50.918;4.510;2023-05-10T01:03:59;100359.00;;;12.40
15607;BMP180;7865;50.918;4.510;2023-05-10T01:09:01;100354.00;;;12.40
15607;BMP180;7865;50.918;4.510;2023-05-10T01:14:03;100358.00;;;12.40
15607;BMP180;7865;50.918;4.510;2023-05-10T01:19:18;100361.00;;;12.40
15607;BMP180;7865;50.918;4.510;2023-05-10T01:24:40;100360.00;;;12.40
15607;BMP180;7865;50.918;4.510;2023-05-10T01:35:14;100365.00;;;12.40
15607;BMP180;7865;50.918;4.510;2023-05-10T01:40:34;100365.00;;;12.40
15607;BMP180;7865;50.918;4.510;2023-05-10T01:45:44;100363.00;;;12.40
15607;BMP180;7865;50.918;4.510;2023-05-10T01:50:48;100365.00;;;12.40
15607;BMP180;7865;50.918;4.510;2023-05-10T01:55:53;100364.00;;;12.40
15607;BMP180;7865;50.918;4.510;2023-05-10T02:00:58;100354.00;;;12.40
15607;BMP180;7865;50.918;4.510;2023-05-10T02:06:01;100373.00;;;12.40
15607;BMP180;7865;50.918;4.510;2023-05-10T02:11:04;100386.00;;;12.30
15607;BMP180;7865;50.918;4.510;2023-05-10T02:16:07;100379.00;;;12.30
15607;BMP180;7865;50.918;4.510;2023-05-10T02:21:10;100377.00;;;12.30
15607;BMP180;7865;50.918;4.510;2023-05-10T02:26:13;100390.00;;;12.30
15607;BMP180;7865;50.918;4.510;2023-05-10T02:31:16;100384.00;;;12.30
15607;BMP180;7865;50.918;4.510;2023-05-10T02:36:19;100379.00;;;12.30
15607;BMP180;7865;50.918;4.510;2023-05-10T02:41:22;100392.00;;;12.30
15607;BMP180;7865;50.918;4.510;2023-05-10T02:46:25;100397.00;;;12.30
15607;BMP180;7865;50.918;4.510;2023-05-10T02:51:31;100402.00;;;12.30
15607;BMP180;7865;50.918;4.510;2023-05-10T02:56:34;100398.00;;;12.30
15607;BMP180;7865;50.918;4.510;2023-05-10T03:01:36;100401.00;;;12.30
15607;BMP180;7865;50.918;4.510;2023-05-10T03:06:39;100400.00;;;12.20
15607;BMP180;7865;50.918;4.510;2023-05-10T03:17:46;100400.00;;;12.10
15607;BMP180;7865;50.918;4.510;2023-05-10T03:22:55;100410.00;;;12.10
15607;BMP180;7865;50.918;4.510;2023-05-10T03:27:57;100416.00;;;12.10
15607;BMP180;7865;50.918;4.510;2023-05-10T03:33:04;100427.00;;;12.10
15607;BMP180;7865;50.918;4.510;2023-05-10T03:38:09;100423.00;;;12.10
15607;BMP180;7865;50.918;4.510;2023-05-10T03:43:11;100435.00;;;12.00
15607;BMP180;7865;50.918;4.510;2023-05-10T03:48:12;100434.00;;;11.90
15607;BMP180;7865;50.918;4.510;2023-05-10T03:53:16;100436.00;;;11.90
15607;BMP180;7865;50.918;4.510;2023-05-10T03:58:17;100445.00;;;11.80
15607;BMP180;7865;50.918;4.510;2023-05-10T04:03:19;100450.00;;;11.70
15607;BMP180;7865;50.918;4.510;2023-05-10T04:08:21;100460.00;;;11.70
15607;BMP180;7865;50.918;4.510;2023-05-10T04:13:23;100448.00;;;11.70
15607;BMP180;7865;50.918;4.510;2023-05-10T04:18:25;100450.00;;;11.70
15607;BMP180;7865;50.918;4.510;2023-05-10T04:23:27;100451.00;;;11.70
15607;BMP180;7865;50.918;4.510;2023-05-10T04:28:28;100448.00;;;11.70
15607;BMP180;7865;50.918;4.510;2023-05-10T04:33:30;100455.00;;;11.70
15607;BMP180;7865;50.918;4.510;2023-05-10T04:38:32;100451.00;;;11.70
15607;BMP180;7865;50.918;4.510;2023-05-10T04:43:33;100456.00;;;11.80
15607;BMP180;7865;50.918;4.510;2023-05-10T04:48:34;100448.00;;;11.70
15607;BMP180;7865;50.918;4.510;2023-05-10T04:53:36;100457.00;;;11.80
15607;BMP180;7865;50.918;4.510;2023-05-10T04:58:37;100455.00;;;11.80
15607;BMP180;7865;50.918;4.510;2023-05-10T05:03:39;100452.00;;;11.80
15607;BMP180;7865;50.918;4.510;2023-05-10T05:08:41;100460.00;;;11.90
15607;BMP180;7865;50.918;4.510;2023-05-10T05:13:42;100456.00;;;12.00
15607;BMP180;7865;50.918;4.510;2023-05-10T05:18:44;100452.00;;;12.00
15607;BMP180;7865;50.918;4.510;2023-05-10T05:23:46;100467.00;;;12.00
15607;BMP180;7865;50.918;4.510;2023-05-10T05:28:47;100473.00;;;12.00
15607;BMP180;7865;50.918;4.510;2023-05-10T05:33:49;100472.00;;;12.20
15607;BMP180;7865;50.918;4.510;2023-05-10T05:38:51;100484.00;;;12.40
15607;BMP180;7865;50.918;4.510;2023-05-10T05:43:52;100493.00;;;12.60
15607;BMP180;7865;50.918;4.510;2023-05-10T05:48:53;100498.00;;;12.70
15607;BMP180;7865;50.918;4.510;2023-05-10T05:53:55;100500.00;;;12.90
15607;BMP180;7865;50.918;4.510;2023-05-10T05:58:56;100497.00;;;13.20
15607;BMP180;7865;50.918;4.510;2023-05-10T06:03:58;100506.00;;;13.50
15607;BMP180;7865;50.918;4.510;2023-05-10T06:08:59;100509.00;;;13.70
15607;BMP180;7865;50.918;4.510;2023-05-10T06:14:01;100502.00;;;13.90
15607;BMP180;7865;50.918;4.510;2023-05-10T06:19:03;100506.00;;;14.10
15607;BMP180;7865;50.918;4.510;2023-05-10T06:24:05;100515.00;;;14.20
15607;BMP180;7865;50.918;4.510;2023-05-10T06:29:07;100521.00;;;14.40
15607;BMP180;7865;50.918;4.510;2023-05-10T06:34:09;100534.00;;;14.80
15607;BMP180;7865;50.918;4.510;2023-05-10T06:39:10;100533.00;;;15.30
15607;BMP180;7865;50.918;4.510;2023-05-10T06:44:13;100543.00;;;15.10
15607;BMP180;7865;50.918;4.510;2023-05-10T06:49:14;100549.00;;;14.80
15607;BMP180;7865;50.918;4.510;2023-05-10T06:54:15;100552.00;;;14.60
15607;BMP180;7865;50.918;4.510;2023-05-10T06:59:16;100549.00;;;14.70
15607;BMP180;7865;50.918;4.510;2023-05-10T07:04:20;100556.00;;;15.10
15607;BMP180;7865;50.918;4.510;2023-05-10T07:09:21;100556.00;;;15.40
15607;BMP180;7865;50.918;4.510;2023-05-10T07:14:23;100567.00;;;15.10
15607;BMP180;7865;50.918;4.510;2023-05-10T07:19:24;100574.00;;;14.70
15607;BMP180;7865;50.918;4.510;2023-05-10T07:24:25;100581.00;;;14.40
15607;BMP180;7865;50.918;4.510;2023-05-10T07:29:27;100587.00;;;14.40
15607;BMP180;7865;50.918;4.510;2023-05-10T07:34:28;100589.00;;;14.70
15607;BMP180;7865;50.918;4.510;2023-05-10T07:39:31;100597.00;;;14.40
15607;BMP180;7865;50.918;4.510;2023-05-10T07:44:32;100599.00;;;14.20
15607;BMP180;7865;50.918;4.510;2023-05-10T07:49:33;100601.00;;;14.40
15607;BMP180;7865;50.918;4.510;2023-05-10T07:54:35;100608.00;;;14.50
15607;BMP180;7865;50.918;4.510;2023-05-10T07:59:36;100611.00;;;14.50
15607;BMP180;7865;50.918;4.510;2023-05-10T08:04:38;100617.00;;;14.50
15607;BMP180;7865;50.918;4.510;2023-05-10T08:09:39;100616.00;;;14.50
15607;BMP180;7865;50.918;4.510;2023-05-10T08:14:41;100617.00;;;14.40
15607;BMP180;7865;50.918;4.510;2023-05-10T08:19:42;100620.00;;;14.50
15607;BMP180;7865;50.918;4.510;2023-05-10T08:24:43;100618.00;;;14.70
15607;BMP180;7865;50.918;4.510;2023-05-10T08:29:45;100621.00;;;15.00
15607;BMP180;7865;50.918;4.510;2023-05-10T08:34:51;100631.00;;;15.30
15607;BMP180;7865;50.918;4.510;2023-05-10T08:39:52;100629.00;;;15.60
15607;BMP180;7865;50.918;4.510;2023-05-10T08:44:54;100627.00;;;16.10
15607;BMP180;7865;50.918;4.510;2023-05-10T08:49:58;100639.00;;;15.60
15607;BMP180;7865;50.918;4.510;2023-05-10T08:55:00;100652.00;;;15.50
15607;BMP180;7865;50.918;4.510;2023-05-10T09:00:02;100650.00;;;15.40
15607;BMP180;7865;50.918;4.510;2023-05-10T09:05:05;100658.00;;;15.40
15607;BMP180;7865;50.918;4.510;2023-05-10T09:10:08;100665.00;;;15.50
15607;BMP180;7865;50.918;4.510;2023-05-10T09:15:10;100672.00;;;15.40
15607;BMP180;7865;50.918;4.510;2023-05-10T09:20:12;100672.00;;;15.50
15607;BMP180;7865;50.918;4.510;2023-05-10T09:25:15;100682.00;;;15.20
15607;BMP180;7865;50.918;4.510;2023-05-10T09:30:23;100686.00;;;14.50
15607;BMP180;7865;50.918;4.510;2023-05-10T09:35:27;100694.00;;;14.60
15607;BMP180;7865;50.918;4.510;2023-05-10T09:40:31;100699.00;;;14.40
15607;BMP180;7865;50.918;4.510;2023-05-10T09:45:34;100700.00;;;14.50
15607;BMP180;7865;50.918;4.510;2023-05-10T09:50:39;100701.00;;;14.80
15607;BMP180;7865;50.918;4.510;2023-05-10T09:55:43;100697.00;;;15.20
15607;BMP180;7865;50.918;4.510;2023-05-10T10:00:47;100696.00;;;15.60
15607;BMP180;7865;50.918;4.510;2023-05-10T10:05:53;100701.00;;;15.70
15607;BMP180;7865;50.918;4.510;2023-05-10T10:10:57;100706.00;;;15.60
15607;BMP180;7865;50.918;4.510;2023-05-10T10:16:01;100706.00;;;15.90
15607;BMP180;7865;50.918;4.510;2023-05-10T10:21:03;100715.00;;;16.20
15607;BMP180;7865;50.918;4.510;2023-05-10T10:26:05;100713.00;;;16.10
15607;BMP180;7865;50.918;4.510;2023-05-10T10:31:36;100716.00;;;16.00
15607;BMP180;7865;50.918;4.510;2023-05-10T10:36:43;100721.00;;;15.80
15607;BMP180;7865;50.918;4.510;2023-05-10T10:41:54;100715.00;;;15.40
15607;BMP180;7865;50.918;4.510;2023-05-10T10:57:21;100725.00;;;15.30
15607;BMP180;7865;50.918;4.510;2023-05-10T11:07:53;100718.00;;;15.10
15607;BMP180;7865;50.918;4.510;2023-05-10T11:13:00;100712.00;;;15.20
15607;BMP180;7865;50.918;4.510;2023-05-10T11:18:20;100708.00;;;15.40
15607;BMP180;7865;50.918;4.510;2023-05-10T11:23:22;100702.00;;;15.40
15607;BMP180;7865;50.918;4.510;2023-05-10T11:28:23;100706.00;;;15.40
15607;BMP180;7865;50.918;4.510;2023-05-10T11:33:26;100713.00;;;15.40
15607;BMP180;7865;50.918;4.510;2023-05-10T11:38:28;100721.00;;;15.40
15607;BMP180;7865;50.918;4.510;2023-05-10T11:43:29;100719.00;;;15.40
15607;BMP180;7865;50.918;4.510;2023-05-10T11:48:31;100712.00;;;15.60
15607;BMP180;7865;50.918;4.510;2023-05-10T11:53:33;100711.00;;;15.90
15607;BMP180;7865;50.918;4.510;2023-05-10T11:58:36;100702.00;;;16.30
15607;BMP180;7865;50.918;4.510;2023-05-10T12:03:38;100700.00;;;16.80
15607;BMP180;7865;50.918;4.510;2023-05-10T12:08:44;100704.00;;;17.30
15607;BMP180;7865;50.918;4.510;2023-05-10T12:13:46;100701.00;;;17.80
15607;BMP180;7865;50.918;4.510;2023-05-10T12:18:50;100697.00;;;18.10
15607;BMP180;7865;50.918;4.510;2023-05-10T12:23:59;100695.00;;;18.40
15607;BMP180;7865;50.918;4.510;2023-05-10T12:29:18;100690.00;;;19.10
15607;BMP180;7865;50.918;4.510;2023-05-10T12:34:27;100681.00;;;20.20
15607;BMP180;7865;50.918;4.510;2023-05-10T12:39:39;100679.00;;;21.50
15607;BMP180;7865;50.918;4.510;2023-05-10T12:44:40;100692.00;;;21.50
15607;BMP180;7865;50.918;4.510;2023-05-10T12:49:42;100685.00;;;22.50
15607;BMP180;7865;50.918;4.510;2023-05-10T12:54:43;100688.00;;;22.70
15607;BMP180;7865;50.918;4.510;2023-05-10T12:59:44;100698.00;;;23.10
15607;BMP180;7865;50.918;4.510;2023-05-10T13:04:46;100698.00;;;23.20
15607;BMP180;7865;50.918;4.510;2023-05-10T13:09:51;100704.00;;;23.10
15607;BMP180;7865;50.918;4.510;2023-05-10T13:14:52;100699.00;;;22.60
15607;BMP180;7865;50.918;4.510;2023-05-10T13:19:53;100709.00;;;22.20
15607;BMP180;7865;50.918;4.510;2023-05-10T13:24:55;100720.00;;;21.90
15607;BMP180;7865;50.918;4.510;2023-05-10T13:29:56;100723.00;;;21.80
15607;BMP180;7865;50.918;4.510;2023-05-10T13:35:00;100722.00;;;21.90
15607;BMP180;7865;50.918;4.510;2023-05-10T13:40:02;100737.00;;;21.70
15607;BMP180;7865;50.918;4.510;2023-05-10T13:45:05;100734.00;;;21.50
15607;BMP180;7865;50.918;4.510;2023-05-10T13:50:08;100737.00;;;21.20
15607;BMP180;7865;50.918;4.510;2023-05-10T13:55:09;100735.00;;;20.60
15607;BMP180;7865;50.918;4.510;2023-05-10T14:00:16;100734.00;;;20.60
15607;BMP180;7865;50.918;4.510;2023-05-10T14:05:17;100736.00;;;21.00
15607;BMP180;7865;50.918;4.510;2023-05-10T14:10:23;100736.00;;;21.00
15607;BMP180;7865;50.918;4.510;2023-05-10T14:15:24;100729.00;;;20.80
15607;BMP180;7865;50.918;4.510;2023-05-10T14:20:25;100724.00;;;20.50
15607;BMP180;7865;50.918;4.510;2023-05-10T14:25:27;100722.00;;;20.60
15607;BMP180;7865;50.918;4.510;2023-05-10T14:30:29;100716.00;;;20.10
15607;BMP180;7865;50.918;4.510;2023-05-10T14:35:30;100729.00;;;19.70
15607;BMP180;7865;50.918;4.510;2023-05-10T14:40:34;100738.00;;;19.60
15607;BMP180;7865;50.918;4.510;2023-05-10T14:45:36;100743.00;;;19.40
15607;BMP180;7865;50.918;4.510;2023-05-10T14:50:37;100745.00;;;19.40
15607;BMP180;7865;50.918;4.510;2023-05-10T14:55:39;100737.00;;;19.30
15607;BMP180;7865;50.918;4.510;2023-05-10T15:00:41;100740.00;;;18.90
15607;BMP180;7865;50.918;4.510;2023-05-10T15:05:42;100743.00;;;18.50
15607;BMP180;7865;50.918;4.510;2023-05-10T15:10:44;100745.00;;;17.70
15607;BMP180;7865;50.918;4.510;2023-05-10T15:15:45;100747.00;;;16.90
15607;BMP180;7865;50.918;4.510;2023-05-10T15:20:47;100753.00;;;16.00
15607;BMP180;7865;50.918;4.510;2023-05-10T15:25:48;100764.00;;;15.40
15607;BMP180;7865;50.918;4.510;2023-05-10T15:30:53;100774.00;;;14.80
15607;BMP180;7865;50.918;4.510;2023-05-10T15:35:54;100770.00;;;14.60
15607;BMP180;7865;50.918;4.510;2023-05-10T15:40:56;100779.00;;;14.40
15607;BMP180;7865;50.918;4.510;2023-05-10T15:45:59;100784.00;;;14.30
15607;BMP180;7865;50.918;4.510;2023-05-10T15:51:00;100790.00;;;14.30
15607;BMP180;7865;50.918;4.510;2023-05-10T15:56:02;100798.00;;;14.30
15607;BMP180;7865;50.918;4.510;2023-05-10T16:01:04;100774.00;;;14.50
15607;BMP180;7865;50.918;4.510;2023-05-10T16:06:08;100784.00;;;14.70
15607;BMP180;7865;50.918;4.510;2023-05-10T16:11:10;100782.00;;;15.00
15607;BMP180;7865;50.918;4.510;2023-05-10T16:16:11;100780.00;;;15.30
15607;BMP180;7865;50.918;4.510;2023-05-10T16:21:12;100785.00;;;15.50
15607;BMP180;7865;50.918;4.510;2023-05-10T16:26:14;100787.00;;;15.60
15607;BMP180;7865;50.918;4.510;2023-05-10T16:31:15;100787.00;;;15.80
15607;BMP180;7865;50.918;4.510;2023-05-10T16:36:18;100783.00;;;16.20
15607;BMP180;7865;50.918;4.510;2023-05-10T16:41:20;100776.00;;;16.50
15607;BMP180;7865;50.918;4.510;2023-05-10T16:46:21;100781.00;;;16.80
15607;BMP180;7865;50.918;4.510;2023-05-10T16:51:22;100780.00;;;16.90
15607;BMP180;7865;50.918;4.510;2023-05-10T16:56:24;100789.00;;;16.20
15607;BMP180;7865;50.918;4.510;2023-05-10T17:01:26;100794.00;;;15.80
15607;BMP180;7865;50.918;4.510;2023-05-10T17:06:28;100786.00;;;15.50
15607;BMP180;7865;50.918;4.510;2023-05-10T17:11:30;100800.00;;;15.00
15607;BMP180;7865;50.918;4.510;2023-05-10T17:16:32;100812.00;;;14.70
15607;BMP180;7865;50.918;4.510;2023-05-10T17:21:33;100807.00;;;14.50
15607;BMP180;7865;50.918;4.510;2023-05-10T17:26:34;100816.00;;;14.40
15607;BMP180;7865;50.918;4.510;2023-05-10T17:31:36;100810.00;;;14.30
15607;BMP180;7865;50.918;4.510;2023-05-10T17:36:38;100813.00;;;14.40
15607;BMP180;7865;50.918;4.510;2023-05-10T17:41:40;100810.00;;;14.30
15607;BMP180;7865;50.918;4.510;2023-05-10T17:46:42;100810.00;;;14.30
15607;BMP180;7865;50.918;4.510;2023-05-10T17:51:43;100811.00;;;14.10
15607;BMP180;7865;50.918;4.510;2023-05-10T17:56:48;100818.00;;;14.00
15607;BMP180;7865;50.918;4.510;2023-05-10T18:01:49;100811.00;;;13.80
15607;BMP180;7865;50.918;4.510;2023-05-10T18:06:53;100823.00;;;13.50
15607;BMP180;7865;50.918;4.510;2023-05-10T18:12:01;100826.00;;;13.30
15607;BMP180;7865;50.918;4.510;2023-05-10T18:17:03;100825.00;;;13.20
15607;BMP180;7865;50.918;4.510;2023-05-10T18:22:05;100832.00;;;13.10
15607;BMP180;7865;50.918;4.510;2023-05-10T18:27:10;100832.00;;;13.00
15607;BMP180;7865;50.918;4.510;2023-05-10T18:32:11;100833.00;;;12.90
15607;BMP180;7865;50.918;4.510;2023-05-10T18:37:13;100833.00;;;12.80
15607;BMP180;7865;50.918;4.510;2023-05-10T18:42:15;100839.00;;;12.70
15607;BMP180;7865;50.918;4.510;2023-05-10T18:47:17;100835.00;;;12.70
15607;BMP180;7865;50.918;4.510;2023-05-10T18:52:19;100833.00;;;12.70
15607;BMP180;7865;50.918;4.510;2023-05-10T18:57:20;100843.00;;;12.70
15607;BMP180;7865;50.918;4.510;2023-05-10T19:02:22;100845.00;;;12.60
15607;BMP180;7865;50.918;4.510;2023-05-10T19:07:25;100837.00;;;12.60
15607;BMP180;7865;50.918;4.510;2023-05-10T19:12:26;100849.00;;;12.60
15607;BMP180;7865;50.918;4.510;2023-05-10T19:17:28;100851.00;;;12.60
15607;BMP180;7865;50.918;4.510;2023-05-10T19:22:32;100848.00;;;12.60
15607;BMP180;7865;50.918;4.510;2023-05-10T19:27:56;100867.00;;;12.60
15607;BMP180;7865;50.918;4.510;2023-05-10T19:32:58;100861.00;;;12.50
15607;BMP180;7865;50.918;4.510;2023-05-10T19:38:00;100866.00;;;12.50
15607;BMP180;7865;50.918;4.510;2023-05-10T19:43:02;100878.00;;;12.50
15607;BMP180;7865;50.918;4.510;2023-05-10T19:48:03;100886.00;;;12.50
15607;BMP180;7865;50.918;4.510;2023-05-10T19:53:05;100897.00;;;12.50
15607;BMP180;7865;50.918;4.510;2023-05-10T19:58:07;100903.00;;;12.60
15607;BMP180;7865;50.918;4.510;2023-05-10T20:03:08;100904.00;;;12.60
15607;BMP180;7865;50.918;4.510;2023-05-10T20:08:10;100903.00;;;12.70
15607;BMP180;7865;50.918;4.510;2023-05-10T20:13:11;100907.00;;;12.70
15607;BMP180;7865;50.918;4.510;2023-05-10T20:18:13;100913.00;;;12.70
15607;BMP180;7865;50.918;4.510;2023-05-10T20:23:14;100917.00;;;12.70
15607;BMP180;7865;50.918;4.510;2023-05-10T20:28:21;100913.00;;;12.70
15607;BMP180;7865;50.918;4.510;2023-05-10T20:33:23;100917.00;;;12.70
15607;BMP180;7865;50.918;4.510;2023-05-10T20:38:25;100915.00;;;12.70
15607;BMP180;7865;50.918;4.510;2023-05-10T20:43:26;100909.00;;;12.70
15607;BMP180;7865;50.918;4.510;2023-05-10T20:48:31;100913.00;;;12.70
15607;BMP180;7865;50.918;4.510;2023-05-10T20:53:33;100915.00;;;12.70
15607;BMP180;7865;50.918;4.510;2023-05-10T20:58:35;100911.00;;;12.70
15607;BMP180;7865;50.918;4.510;2023-05-10T21:03:37;100905.00;;;12.70
15607;BMP180;7865;50.918;4.510;2023-05-10T21:08:38;100893.00;;;12.70
15607;BMP180;7865;50.918;4.510;2023-05-10T21:13:41;100907.00;;;12.70
15607;BMP180;7865;50.918;4.510;2023-05-10T21:18:42;100894.00;;;12.70
15607;BMP180;7865;50.918;4.510;2023-05-10T21:23:47;100909.00;;;12.60
15607;BMP180;7865;50.918;4.510;2023-05-10T21:28:53;100903.00;;;12.60
15607;BMP180;7865;50.918;4.510;2023-05-10T21:33:55;100893.00;;;12.60
15607;BMP180;7865;50.918;4.510;2023-05-10T21:38:57;100902.00;;;12.50
15607;BMP180;7865;50.918;4.510;2023-05-10T21:43:58;100896.00;;;12.50
15607;BMP180;7865;50.918;4.510;2023-05-10T21:48:59;100890.00;;;12.50
15607;BMP180;7865;50.918;4.510;2023-05-10T21:54:01;100891.00;;;12.50
15607;BMP180;7865;50.918;4.510;2023-05-10T21:59:02;100889.00;;;12.50
15607;BMP180;7865;50.918;4.510;2023-05-10T22:04:04;100889.00;;;12.50
15607;BMP180;7865;50.918;4.510;2023-05-10T22:09:05;100890.00;;;12.40
15607;BMP180;7865;50.918;4.510;2023-05-10T22:14:07;100894.00;;;12.40
15607;BMP180;7865;50.918;4.510;2023-05-10T22:19:08;100888.00;;;12.40
15607;BMP180;7865;50.918;4.510;2023-05-10T22:24:10;100892.00;;;12.40
15607;BMP180;7865;50.918;4.510;2023-05-10T22:29:11;100895.00;;;12.40
15607;BMP180;7865;50.918;4.510;2023-05-10T22:34:13;100892.00;;;12.40
15607;BMP180;7865;50.918;4.510;2023-05-10T22:39:15;100894.00;;;12.40
15607;BMP180;7865;50.918;4.510;2023-05-10T22:44:17;100899.00;;;12.40
15607;BMP180;7865;50.918;4.510;2023-05-10T22:49:18;100910.00;;;12.30
15607;BMP180;7865;50.918;4.510;2023-05-10T23:12:37;100913.00;;;12.20
15607;BMP180;7865;50.918;4.510;2023-05-10T23:17:39;100913.00;;;12.20
15607;BMP180;7865;50.918;4.510;2023-05-10T23:22:40;100908.00;;;12.10
15607;BMP180;7865;50.918;4.510;2023-05-10T23:27:42;100908.00;;;12.00
15607;BMP180;7865;50.918;4.510;2023-05-10T23:32:44;100916.00;;;11.90
15607;BMP180;7865;50.918;4.510;2023-05-10T23:37:45;100922.00;;;11.80
15607;BMP180;7865;50.918;4.510;2023-05-10T23:42:46;100909.00;;;11.80
15607;BMP180;7865;50.918;4.510;2023-05-10T23:47:48;100913.00;;;11.70
15607;BMP180;7865;50.918;4.510;2023-05-10T23:52:50;100908.00;;;11.70
15607;BMP180;7865;50.918;4.510;2023-05-10T23:57:52;100908.00;;;11.60
